ENVAEDGS

Guest
Details From ENVA - Vaernes
To EDGS - Siegerland
Flight Number -
Tags Routegen
Created
Modified
Stats Distance 798 nm / 1,478 km
Max Altitude 0 ft / 0 m
Waypoints 7
Social Downloads 0
Likes 0
Share VATSIM

Download

Looking for another format? Having issues loading an existing format? Contact us
Advertisement - Login to hide

Notes

None

Route

ENVA +63.46_+010.57 EKDAL AE002 BW +50.98_+007.53 EDGS

ID Type Via Altitude Latitude Longitude Leg Dist Tot Dist Heading (true) Name
O ENVA APT - 0 ft / 0 m 63.45766˚ 10.88942˚ - 0 nm - -
+63.46_+010.57 DME - 0 ft / 0 m 63.45781˚ 10.56553˚ 8 nm 8 nm 270° / 270° -
EKDAL FIX - 0 ft / 0 m 60.25556˚ 9.32222˚ 195 nm 204 nm 191° / 190° -
AE002 FIX - 0 ft / 0 m 57.09246˚ 9.81209˚ 190 nm 394 nm 175° / 176° -
BW FIX - 0 ft / 0 m 53.04422˚ 8.66998˚ 246 nm 641 nm 190° / 189° -
+50.98_+007.53 DME - 0 ft / 0 m 50.97947˚ 7.53003˚ 130 nm 772 nm 199° / 198° -
O EDGS APT - 0 ft / 0 m 50.71276˚ 8.07268˚ 26 nm 798 nm 128° / 128° -

Altitude Profile

Advertisement - Login to hide

Weather


0- 5 10 15 20 25 30 35+ Temperature / ° C

Clouds and Precipitation
Forecast for 2017-12-14 12:00 UTC. Updated an hour ago

Ground ~20,000 ft ~40,000 ft Winds

ENVA

Details ICAO ENVA (TRD)
Name Vaernes
Region Norway
Timezone Europe/Oslo (UTC+1.0)
Stats Elevation 56 ft / 17 m (AMSL)
Location 63.457605° 10.917980°
Runways 1
Magnetic Variation 3.495° E

METAR

ENVA 141020Z 08006KT CAVOK M11/M12 Q0985 NOSIG RMK WIND 670FT 10010KT

Decode

TAF

TAF ENVA 140500Z 1406/1506 11006KT CAVOK

Decode

Departure Runways

ID Width Length Bearing (true) Bearing (mag) Surface Threshold Offset Overrun Length
09 148 ft / 45 m 9,356 ft / 2,852 m 90.21° 86.72° Asphalt 984 ft / 300 m 0 ft / 0 m
27 148 ft / 45 m 9,356 ft / 2,852 m 270.26° 266.77° Asphalt 689 ft / 210 m 0 ft / 0 m

EDGS

Details ICAO EDGS
Name Siegerland
Region Germany - Civil
Timezone Europe/Berlin (UTC+1.0)
Stats Elevation 1,966 ft / 599 m (AMSL)
Location 50.708250° 8.082240°
Runways 3
Magnetic Variation 2.206° E

METAR

EDGS 141020Z 23013G26KT 9999 VCSH SCT004 BKN008 00/M00 Q0994

Decode

TAF

Not found

Destination Runways

ID Width Length Bearing (true) Bearing (mag) Surface Threshold Offset Overrun Length
04 98 ft / 30 m 1,938 ft / 591 m 39.06° 36.85° Grass 0 ft / 0 m 0 ft / 0 m
13 98 ft / 30 m 5,302 ft / 1,616 m 128.11° 125.90° Asphalt 0 ft / 0 m 0 ft / 0 m
13L 98 ft / 30 m 2,327 ft / 709 m 128.36° 126.15° Grass 0 ft / 0 m 0 ft / 0 m
22 98 ft / 30 m 1,938 ft / 591 m 219.06° 216.85° Grass 0 ft / 0 m 0 ft / 0 m
31 98 ft / 30 m 5,302 ft / 1,616 m 308.12° 305.91° Asphalt 0 ft / 0 m 0 ft / 0 m
31R 98 ft / 30 m 2,327 ft / 709 m 308.37° 306.16° Grass 0 ft / 0 m 0 ft / 0 m

Approach Navaids

Runway Type Ident Frequency Range Bearing (true) Bearing (mag) Slope Elevation
31 Localiser ISIW 108.90 MHz 18 nm / 33 km 308.09° 305.88° - 1,966 ft / 599 m (AMSL)
31 Glidescope ISIW 108.90 MHz 10 nm / 19 km 308.12° 305.91° 3.00° 1,966 ft / 599 m (AMSL)